Time;durP1;ratioP1;P1;durP2;ratioP2;P2;SDS_P1;SDS_P2;PMS_P1;PMS_P2;Temp;Humidity;BMP_temperature;BMP_pressure;BME280_temperature;BME280_humidity;BME280_pressure;Samples;Min_cycle;Max_cycle;Signal;HPM_P1;HPM_P2
2023/07/10 00:00:02;;;;;;;4.53;4.18;;;;;;;;;;5076091;28;20028;-78
2023/07/10 00:02:38;;;;;;;5.50;5.00;;;;;;;;;;5092686;28;20448;-80
2023/07/10 00:05:11;;;;;;;6.07;5.28;;;;;;;;;;5094023;28;20065;-79
2023/07/10 00:07:37;;;;;;;7.93;4.30;;;;;;;;;;5093923;28;20032;-79
2023/07/10 00:10:03;;;;;;;13.07;6.82;;;;;;;;;;5094050;28;20078;-78
2023/07/10 00:12:30;;;;;;;5.72;4.72;;;;;;;;;;5097829;28;20510;-78
2023/07/10 00:14:56;;;;;;;10.00;4.90;;;;;;;;;;5097544;28;20035;-78
2023/07/10 00:17:22;;;;;;;4.70;4.30;;;;;;;;;;5099140;28;20514;-78
2023/07/10 00:19:48;;;;;;;7.10;4.75;;;;;;;;;;5105918;28;20028;-78
2023/07/10 00:22:14;;;;;;;7.22;4.43;;;;;;;;;;5105844;28;20040;-78
2023/07/10 00:24:44;;;;;;;4.18;3.80;;;;;;;;;;5080218;28;20510;-79
2023/07/10 00:27:11;;;;;;;5.30;4.15;;;;;;;;;;5075856;28;20036;-79
2023/07/10 00:29:37;;;;;;;4.10;3.80;;;;;;;;;;5093304;28;20521;-80
2023/07/10 00:32:05;;;;;;;3.53;3.33;;;;;;;;;;5092148;28;20047;-77
2023/07/10 00:34:31;;;;;;;3.85;3.55;;;;;;;;;;5091949;28;20077;-77
2023/07/10 00:36:57;;;;;;;4.25;3.95;;;;;;;;;;5093000;28;20044;-79
2023/07/10 00:39:25;;;;;;;4.30;4.00;;;;;;;;;;5075569;28;20336;-78
2023/07/10 00:41:58;;;;;;;4.28;3.90;;;;;;;;;;5074786;28;20556;-79
2023/07/10 00:44:25;;;;;;;5.25;4.15;;;;;;;;;;5091749;28;20059;-78
2023/07/10 00:46:53;;;;;;;4.25;3.92;;;;;;;;;;5091502;28;20056;-78
2023/07/10 00:49:38;;;;;;;4.30;3.90;;;;;;;;;;5091944;28;20042;-78
2023/07/10 00:52:03;;;;;;;6.63;4.55;;;;;;;;;;5092972;28;20044;-79
2023/07/10 00:54:33;;;;;;;5.47;4.53;;;;;;;;;;5074716;28;20188;-79
2023/07/10 00:57:00;;;;;;;;;;;;;;;;;;5075601;28;20074;-78
2023/07/10 00:59:26;;;;;;;6.88;4.50;;;;;;;;;;5075033;28;19958;-78
2023/07/10 01:02:01;;;;;;;4.30;3.85;;;;;;;;;;5091909;28;20047;-78
2023/07/10 01:04:28;;;;;;;4.40;4.03;;;;;;;;;;5093238;28;20036;-78
2023/07/10 01:06:55;;;;;;;3.88;3.67;;;;;;;;;;5094025;28;20020;-79
2023/07/10 01:09:21;;;;;;;3.92;3.63;;;;;;;;;;5099769;28;20034;-78
2023/07/10 01:11:47;;;;;;;4.10;3.83;;;;;;;;;;5112247;28;20052;-77
2023/07/10 01:14:15;;;;;;;3.50;3.30;;;;;;;;;;5095897;28;20035;-79
2023/07/10 01:16:41;;;;;;;4.35;3.90;;;;;;;;;;5099787;28;20403;-79
2023/07/10 01:19:09;;;;;;;3.75;3.47;;;;;;;;;;5093363;28;20032;-78
2023/07/10 01:21:36;;;;;;;3.20;3.00;;;;;;;;;;5074787;28;20047;-80
2023/07/10 01:24:03;;;;;;;3.85;3.40;;;;;;;;;;5075019;28;20460;-79
2023/07/10 01:26:30;;;;;;;3.33;3.13;;;;;;;;;;5091357;28;20039;-79
2023/07/10 01:28:56;;;;;;;3.40;3.20;;;;;;;;;;5092385;28;20035;-79
2023/07/10 01:31:22;;;;;;;3.88;3.55;;;;;;;;;;5091029;28;20468;-79
2023/07/10 01:34:01;;;;;;;3.30;3.10;;;;;;;;;;5091355;28;20087;-80
2023/07/10 01:36:28;;;;;;;3.50;3.30;;;;;;;;;;5092503;28;20040;-78
2023/07/10 01:38:55;;;;;;;3.63;3.42;;;;;;;;;;5074385;28;20038;-80
2023/07/10 01:41:27;;;;;;;4.30;3.90;;;;;;;;;;5074426;28;20044;-78
2023/07/10 01:43:54;;;;;;;4.03;3.63;;;;;;;;;;5091082;28;20035;-78
2023/07/10 01:46:21;;;;;;;4.95;3.75;;;;;;;;;;5090912;28;20055;-78
2023/07/10 01:48:47;;;;;;;4.20;3.80;;;;;;;;;;5092103;28;20506;-79
2023/07/10 01:51:13;;;;;;;4.50;4.00;;;;;;;;;;5090813;28;20039;-78
2023/07/10 01:53:40;;;;;;;5.30;3.70;;;;;;;;;;5091823;28;20032;-79
2023/07/10 01:56:06;;;;;;;5.65;3.58;;;;;;;;;;5073658;28;20067;-77
2023/07/10 01:58:32;;;;;;;4.13;3.58;;;;;;;;;;5090902;28;20063;-77
2023/07/10 02:00:58;;;;;;;3.40;3.17;;;;;;;;;;5090292;28;20094;-77
2023/07/10 02:03:24;;;;;;;6.57;3.70;;;;;;;;;;5090491;28;20055;-78
2023/07/10 02:05:50;;;;;;;5.13;2.92;;;;;;;;;;5091539;28;20040;-79
2023/07/10 02:08:16;;;;;;;3.70;3.40;;;;;;;;;;5091486;28;20032;-79
2023/07/10 02:10:42;;;;;;;3.95;3.58;;;;;;;;;;5090203;28;20592;-78
2023/07/10 02:13:08;;;;;;;2.80;2.70;;;;;;;;;;5091652;28;20120;-79
2023/07/10 02:15:34;;;;;;;2.85;2.75;;;;;;;;;;5090815;28;20032;-78
2023/07/10 02:18:00;;;;;;;3.50;2.95;;;;;;;;;;5090367;28;20120;-78
2023/07/10 02:20:26;;;;;;;3.28;3.08;;;;;;;;;;5091750;28;20406;-78
2023/07/10 02:22:53;;;;;;;2.55;2.45;;;;;;;;;;5090083;28;20047;-77
2023/07/10 02:25:19;;;;;;;2.80;2.60;;;;;;;;;;5091550;28;20036;-78
2023/07/10 02:27:46;;;;;;;2.80;2.45;;;;;;;;;;5090301;28;20706;-77
2023/07/10 02:30:12;;;;;;;2.72;2.50;;;;;;;;;;5090152;28;20042;-79
2023/07/10 02:32:38;;;;;;;2.58;2.40;;;;;;;;;;5073437;28;20429;-78
2023/07/10 02:35:04;;;;;;;3.72;2.40;;;;;;;;;;5091521;28;20387;-79
2023/07/10 02:37:31;;;;;;;2.50;2.30;;;;;;;;;;5091185;28;20040;-79
2023/07/10 02:39:57;;;;;;;4.60;2.55;;;;;;;;;;5092888;28;20173;-79
2023/07/10 02:42:23;;;;;;;3.90;2.58;;;;;;;;;;5092003;28;20093;-78
2023/07/10 02:44:49;;;;;;;2.38;2.28;;;;;;;;;;5091521;28;20032;-79
2023/07/10 02:47:16;;;;;;;3.97;2.03;;;;;;;;;;5090210;28;20040;-79
2023/07/10 02:49:42;;;;;;;2.47;2.20;;;;;;;;;;5090060;28;20510;-80
2023/07/10 02:52:08;;;;;;;3.45;2.00;;;;;;;;;;5091221;28;20055;-78
2023/07/10 02:54:34;;;;;;;2.80;2.00;;;;;;;;;;5091115;28;20451;-78
2023/07/10 02:57:01;;;;;;;2.90;2.70;;;;;;;;;;5090340;28;20514;-78
2023/07/10 02:59:27;;;;;;;2.35;2.15;;;;;;;;;;5089457;28;20039;-80
2023/07/10 03:01:53;;;;;;;2.28;1.95;;;;;;;;;;5089319;28;20079;-78
2023/07/10 03:04:19;;;;;;;2.17;2.08;;;;;;;;;;5091091;28;20038;-79
2023/07/10 03:06:47;;;;;;;4.13;2.17;;;;;;;;;;5090503;28;20042;-79
2023/07/10 03:09:14;;;;;;;3.28;1.90;;;;;;;;;;5091490;28;20024;-77
2023/07/10 03:11:40;;;;;;;2.13;2.03;;;;;;;;;;5089698;28;20052;-80
2023/07/10 03:14:06;;;;;;;3.00;1.90;;;;;;;;;;5090686;28;20043;-80
2023/07/10 03:16:32;;;;;;;2.13;2.03;;;;;;;;;;5090557;28;20036;-79
2023/07/10 03:18:58;;;;;;;2.08;1.98;;;;;;;;;;5090451;28;20055;-79
2023/07/10 03:21:25;;;;;;;2.08;1.98;;;;;;;;;;5089205;28;20032;-78
2023/07/10 03:23:51;;;;;;;2.58;2.33;;;;;;;;;;5072322;28;20560;-79
2023/07/10 03:26:17;;;;;;;9.80;2.25;;;;;;;;;;5090266;28;20028;-80
2023/07/10 03:28:43;;;;;;;3.25;2.00;;;;;;;;;;5076386;28;20058;-79
2023/07/10 03:31:09;;;;;;;4.30;2.15;;;;;;;;;;5093064;28;20043;-78
2023/07/10 03:33:35;;;;;;;3.90;2.22;;;;;;;;;;5093377;28;20034;-79
2023/07/10 03:36:03;;;;;;;7.50;2.85;;;;;;;;;;5094382;28;20055;-79
2023/07/10 03:38:29;;;;;;;4.55;2.13;;;;;;;;;;5094474;28;20040;-78
2023/07/10 03:40:56;;;;;;;3.97;1.90;;;;;;;;;;5093972;28;20115;-78
2023/07/10 03:43:22;;;;;;;3.03;1.80;;;;;;;;;;5094652;28;20032;-78
2023/07/10 03:45:48;;;;;;;6.25;2.10;;;;;;;;;;5094296;28;20035;-79
2023/07/10 03:48:14;;;;;;;8.48;1.90;;;;;;;;;;5093216;28;20039;-78
2023/07/10 03:50:40;;;;;;;7.35;1.98;;;;;;;;;;5080089;28;20509;-78
2023/07/10 03:53:06;;;;;;;2.65;1.70;;;;;;;;;;5104486;28;20044;-77
2023/07/10 03:55:32;;;;;;;4.10;1.80;;;;;;;;;;5105232;28;20405;-79
2023/07/10 03:57:58;;;;;;;3.72;1.67;;;;;;;;;;5094885;28;20036;-78
2023/07/10 04:00:25;;;;;;;2.50;1.67;;;;;;;;;;5105446;28;20111;-80
2023/07/10 04:02:51;;;;;;;1.88;1.70;;;;;;;;;;5113143;28;20023;-79
2023/07/10 04:05:17;;;;;;;5.38;1.70;;;;;;;;;;5114721;28;20039;-79
2023/07/10 04:07:44;;;;;;;3.53;1.52;;;;;;;;;;5110535;28;20047;-80
2023/07/10 04:10:09;;;;;;;5.00;1.50;;;;;;;;;;5084314;28;20470;-77
2023/07/10 04:12:39;;;;;;;4.45;1.75;;;;;;;;;;5076213;28;20059;-79
2023/07/10 04:15:05;;;;;;;6.50;1.63;;;;;;;;;;5075579;28;20402;-79
2023/07/10 04:17:32;;;;;;;3.35;1.48;;;;;;;;;;5092295;28;20691;-78
2023/07/10 04:19:58;;;;;;;2.78;1.73;;;;;;;;;;5092377;28;20040;-79
2023/07/10 04:22:25;;;;;;;5.88;1.88;;;;;;;;;;5092491;28;20036;-78
2023/07/10 04:24:51;;;;;;;3.67;2.22;;;;;;;;;;5093509;28;20028;-78
2023/07/10 04:27:17;;;;;;;11.75;2.40;;;;;;;;;;5093437;28;20097;-79
2023/07/10 04:29:43;;;;;;;4.85;1.92;;;;;;;;;;5092448;28;20032;-80
2023/07/10 04:32:09;;;;;;;1.98;1.60;;;;;;;;;;5093325;28;20052;-79
2023/07/10 04:34:36;;;;;;;7.15;1.70;;;;;;;;;;5092239;28;20032;-79
2023/07/10 04:37:02;;;;;;;4.00;1.58;;;;;;;;;;5091899;28;20059;-80
2023/07/10 04:39:29;;;;;;;6.47;1.73;;;;;;;;;;5091228;28;20031;-79
2023/07/10 04:41:55;;;;;;;2.50;1.48;;;;;;;;;;5093210;28;20051;-79
2023/07/10 04:44:23;;;;;;;4.68;1.80;;;;;;;;;;5092053;28;20054;-79
2023/07/10 04:46:49;;;;;;;3.78;1.75;;;;;;;;;;5091943;28;20578;-79
2023/07/10 04:49:15;;;;;;;4.97;1.52;;;;;;;;;;5093232;28;20036;-79
2023/07/10 04:51:41;;;;;;;6.18;1.63;;;;;;;;;;5093086;28;20048;-80
2023/07/10 04:54:07;;;;;;;2.60;1.55;;;;;;;;;;5092612;28;20031;-79
2023/07/10 04:56:33;;;;;;;4.93;1.77;;;;;;;;;;5092822;28;20468;-79
2023/07/10 04:58:59;;;;;;;2.08;1.40;;;;;;;;;;5092801;28;20038;-79
2023/07/10 05:01:26;;;;;;;6.50;1.85;;;;;;;;;;5074808;28;20093;-79
2023/07/10 05:03:53;;;;;;;6.38;1.75;;;;;;;;;;5074721;28;20572;-79
2023/07/10 05:06:19;;;;;;;6.65;1.42;;;;;;;;;;5092775;28;20087;-81
2023/07/10 05:08:46;;;;;;;7.13;2.00;;;;;;;;;;5092824;28;20035;-79
2023/07/10 05:11:12;;;;;;;1.67;1.52;;;;;;;;;;5092225;28;20059;-79
2023/07/10 05:13:38;;;;;;;4.65;1.75;;;;;;;;;;5074583;28;20040;-81
2023/07/10 05:16:04;;;;;;;6.85;2.30;;;;;;;;;;5091094;28;20511;-80
2023/07/10 05:18:31;;;;;;;6.65;2.40;;;;;;;;;;5092344;28;20040;-80
2023/07/10 05:20:58;;;;;;;2.15;1.90;;;;;;;;;;5092173;28;20039;-77
2023/07/10 05:23:25;;;;;;;6.15;1.98;;;;;;;;;;5074593;28;20525;-80
2023/07/10 05:25:54;;;;;;;2.88;1.90;;;;;;;;;;5091170;28;20073;-80
2023/07/10 05:28:21;;;;;;;4.23;2.00;;;;;;;;;;5092477;28;20100;-79
2023/07/10 05:30:47;;;;;;;2.00;1.90;;;;;;;;;;5092262;28;20044;-78
2023/07/10 05:33:13;;;;;;;6.28;2.10;;;;;;;;;;5092222;28;20039;-80
2023/07/10 05:35:56;;;;;;;4.13;1.98;;;;;;;;;;5091031;28;20039;-79
2023/07/10 05:38:22;;;;;;;3.03;2.00;;;;;;;;;;5090787;28;20039;-80
2023/07/10 05:40:49;;;;;;;2.28;2.17;;;;;;;;;;5090795;28;20131;-79
2023/07/10 05:43:15;;;;;;;3.92;2.20;;;;;;;;;;5091673;28;20414;-80
2023/07/10 05:45:41;;;;;;;3.47;2.60;;;;;;;;;;5090570;28;20040;-79
2023/07/10 05:48:08;;;;;;;2.60;2.30;;;;;;;;;;5090022;28;20028;-80
2023/07/10 05:50:35;;;;;;;7.35;2.50;;;;;;;;;;5072912;28;20047;-81
2023/07/10 05:53:01;;;;;;;4.95;2.60;;;;;;;;;;5073729;28;20089;-80
2023/07/10 05:55:27;;;;;;;6.47;2.45;;;;;;;;;;5091995;28;20028;-79
2023/07/10 05:57:54;;;;;;;2.70;2.50;;;;;;;;;;5090988;28;20143;-79
2023/07/10 06:00:19;;;;;;;4.80;2.35;;;;;;;;;;5091712;28;20035;-79
2023/07/10 06:02:45;;;;;;;4.50;2.35;;;;;;;;;;5090400;28;20039;-78
2023/07/10 06:05:11;;;;;;;3.65;2.30;;;;;;;;;;5091700;28;20036;-79
2023/07/10 06:07:38;;;;;;;3.58;2.33;;;;;;;;;;5091848;28;20031;-81
2023/07/10 06:10:04;;;;;;;2.75;2.55;;;;;;;;;;5090755;28;20056;-82
2023/07/10 06:12:32;;;;;;;3.28;2.55;;;;;;;;;;5090061;28;20044;-81
2023/07/10 06:14:58;;;;;;;2.67;2.28;;;;;;;;;;5092051;28;20035;-82
2023/07/10 06:17:25;;;;;;;2.78;2.50;;;;;;;;;;5091642;28;20116;-80
2023/07/10 06:19:51;;;;;;;7.55;2.60;;;;;;;;;;5092650;28;20561;-79
2023/07/10 06:22:17;;;;;;;2.83;2.45;;;;;;;;;;5090836;28;20039;-79
2023/07/10 06:24:44;;;;;;;7.85;2.50;;;;;;;;;;5091424;28;20526;-78
2023/07/10 06:27:10;;;;;;;4.47;3.30;;;;;;;;;;5073264;28;20032;-80
2023/07/10 06:29:36;;;;;;;5.32;2.90;;;;;;;;;;5093296;28;20052;-79
2023/07/10 06:32:04;;;;;;;4.00;2.55;;;;;;;;;;5093056;28;20044;-80
2023/07/10 06:34:30;;;;;;;2.50;2.40;;;;;;;;;;5093557;28;20050;-78
2023/07/10 06:36:56;;;;;;;8.93;3.25;;;;;;;;;;5091839;28;20035;-79
2023/07/10 06:39:22;;;;;;;8.07;3.00;;;;;;;;;;5093519;28;20119;-78
2023/07/10 06:41:49;;;;;;;7.57;3.15;;;;;;;;;;5091307;28;20084;-79
2023/07/10 06:44:15;;;;;;;6.70;2.67;;;;;;;;;;5092025;28;20034;-79
2023/07/10 06:46:42;;;;;;;5.72;2.97;;;;;;;;;;5090396;28;20033;-80
2023/07/10 06:49:08;;;;;;;6.65;2.80;;;;;;;;;;5090994;28;20123;-79
2023/07/10 06:51:35;;;;;;;4.47;2.70;;;;;;;;;;5103906;28;20043;-80
2023/07/10 06:54:02;;;;;;;7.07;2.80;;;;;;;;;;5116532;28;20056;-80
2023/07/10 06:56:30;;;;;;;3.47;2.47;;;;;;;;;;5110754;28;20040;-80
2023/07/10 06:58:56;;;;;;;4.50;2.70;;;;;;;;;;5110575;28;20043;-80
2023/07/10 07:01:22;;;;;;;7.72;2.50;;;;;;;;;;5099549;28;20088;-80
2023/07/10 07:03:48;;;;;;;7.95;3.13;;;;;;;;;;5090918;28;20059;-79
2023/07/10 07:06:15;;;;;;;2.80;2.55;;;;;;;;;;5091045;28;20043;-79
2023/07/10 07:08:41;;;;;;;9.07;2.75;;;;;;;;;;5090906;28;20044;-79
2023/07/10 07:11:07;;;;;;;6.40;2.45;;;;;;;;;;5089549;28;20044;-79
2023/07/10 07:13:33;;;;;;;8.38;2.63;;;;;;;;;;5090933;28;20032;-79
2023/07/10 07:15:59;;;;;;;7.15;2.88;;;;;;;;;;5092369;28;20455;-80
2023/07/10 07:18:26;;;;;;;6.47;2.47;;;;;;;;;;5101936;28;20040;-79
2023/07/10 07:20:52;;;;;;;4.47;2.47;;;;;;;;;;5098098;28;20429;-79
2023/07/10 07:23:18;;;;;;;8.70;3.05;;;;;;;;;;5089691;28;20120;-79
2023/07/10 07:25:45;;;;;;;3.15;2.50;;;;;;;;;;5089875;28;20048;-80
2023/07/10 07:28:11;;;;;;;4.10;2.42;;;;;;;;;;5089253;28;20028;-80
2023/07/10 07:30:37;;;;;;;3.55;2.65;;;;;;;;;;5091110;28;20032;-79
2023/07/10 07:33:03;;;;;;;2.30;2.13;;;;;;;;;;5091199;28;20172;-79
2023/07/10 07:35:30;;;;;;;5.95;2.38;;;;;;;;;;5093013;28;20040;-79
2023/07/10 07:37:56;;;;;;;6.50;2.47;;;;;;;;;;5091155;28;20047;-79
2023/07/10 07:40:22;;;;;;;12.75;3.03;;;;;;;;;;5091282;28;20051;-79
2023/07/10 07:42:48;;;;;;;9.38;2.60;;;;;;;;;;5089360;28;20036;-80
2023/07/10 07:45:15;;;;;;;3.42;2.50;;;;;;;;;;5090661;28;20032;-80
2023/07/10 07:47:41;;;;;;;3.33;3.08;;;;;;;;;;5090460;28;20036;-79
2023/07/10 07:50:07;;;;;;;3.20;2.40;;;;;;;;;;5090989;28;20051;-78
2023/07/10 07:52:33;;;;;;;10.63;2.85;;;;;;;;;;5090333;28;20059;-80
2023/07/10 07:54:59;;;;;;;5.70;2.90;;;;;;;;;;5089484;28;20036;-79
2023/07/10 07:57:25;;;;;;;3.85;2.60;;;;;;;;;;5089019;28;20526;-79
2023/07/10 07:59:52;;;;;;;6.13;2.92;;;;;;;;;;5090372;28;20569;-79
2023/07/10 08:02:18;;;;;;;7.18;3.38;;;;;;;;;;5090214;28;20127;-79
2023/07/10 08:04:44;;;;;;;5.72;3.25;;;;;;;;;;5088981;28;20059;-80
2023/07/10 08:07:10;;;;;;;12.27;2.95;;;;;;;;;;5089898;28;20036;-79
2023/07/10 08:09:36;;;;;;;4.82;2.63;;;;;;;;;;5090023;28;20123;-80
2023/07/10 08:12:02;;;;;;;6.90;2.63;;;;;;;;;;5088644;28;20530;-79
2023/07/10 08:14:29;;;;;;;6.38;2.38;;;;;;;;;;5090551;28;20028;-78
2023/07/10 08:16:55;;;;;;;3.03;2.80;;;;;;;;;;5095763;28;20056;-79
2023/07/10 08:19:21;;;;;;;4.45;2.90;;;;;;;;;;5095658;28;20036;-81
2023/07/10 08:21:47;;;;;;;3.03;2.58;;;;;;;;;;5097280;28;20032;-80
2023/07/10 08:24:13;;;;;;;4.18;3.25;;;;;;;;;;5095164;28;20150;-78
2023/07/10 08:26:39;;;;;;;3.95;2.83;;;;;;;;;;5096952;28;20042;-79
2023/07/10 08:29:25;;;;;;;2.90;2.70;;;;;;;;;;5092909;28;20032;-81
2023/07/10 08:31:55;;;;;;;5.90;2.70;;;;;;;;;;5075274;28;20563;-80
2023/07/10 08:34:21;;;;;;;7.55;3.38;;;;;;;;;;5092184;28;20047;-81
2023/07/10 08:36:47;;;;;;;6.45;3.00;;;;;;;;;;5093535;28;20115;-79
2023/07/10 08:39:14;;;;;;;5.03;3.40;;;;;;;;;;5093458;28;20119;-79
2023/07/10 08:41:40;;;;;;;3.70;2.88;;;;;;;;;;5092180;28;20111;-81
2023/07/10 08:44:08;;;;;;;3.95;3.30;;;;;;;;;;5075275;28;20174;-79
2023/07/10 08:46:35;;;;;;;3.78;3.35;;;;;;;;;;5094056;28;20450;-80
2023/07/10 08:49:07;;;;;;;3.40;3.10;;;;;;;;;;5094571;28;20036;-80
2023/07/10 08:51:46;;;;;;;2.95;2.75;;;;;;;;;;5093484;28;20043;-81
2023/07/10 08:54:13;;;;;;;6.43;2.80;;;;;;;;;;5075663;28;20460;-80
2023/07/10 08:56:54;;;;;;;5.75;2.88;;;;;;;;;;5092213;28;20115;-80
2023/07/10 08:59:26;;;;;;;9.07;2.63;;;;;;;;;;5092947;28;20065;-79
2023/07/10 09:01:52;;;;;;;5.70;3.15;;;;;;;;;;5092163;28;20028;-80
2023/07/10 09:04:18;;;;;;;4.35;3.13;;;;;;;;;;5092784;28;20043;-80
2023/07/10 09:06:57;;;;;;;4.22;3.05;;;;;;;;;;5091555;28;20043;-81
2023/07/10 09:09:35;;;;;;;3.33;3.13;;;;;;;;;;5092428;28;20036;-79
2023/07/10 09:12:04;;;;;;;3.15;2.85;;;;;;;;;;5091169;28;20067;-79
2023/07/10 09:14:42;;;;;;;6.13;3.17;;;;;;;;;;5092270;28;20040;-79
2023/07/10 09:17:13;;;;;;;10.57;3.13;;;;;;;;;;5092437;28;20040;-79
2023/07/10 09:19:39;;;;;;;3.42;3.22;;;;;;;;;;5092395;28;20040;-79
2023/07/10 09:22:08;;;;;;;4.15;3.65;;;;;;;;;;5074826;28;20402;-81
2023/07/10 09:24:34;;;;;;;4.43;3.08;;;;;;;;;;5091096;28;20059;-79
2023/07/10 09:27:00;;;;;;;4.57;3.20;;;;;;;;;;5092536;28;20032;-79
2023/07/10 09:29:27;;;;;;;5.57;3.10;;;;;;;;;;5090698;28;20226;-81
2023/07/10 09:31:56;;;;;;;3.25;3.05;;;;;;;;;;5092388;28;20418;-80
2023/07/10 09:34:23;;;;;;;4.72;2.92;;;;;;;;;;5092286;28;20115;-81
2023/07/10 09:36:50;;;;;;;3.60;3.30;;;;;;;;;;5091295;28;20178;-79
2023/07/10 09:39:16;;;;;;;4.05;3.42;;;;;;;;;;5092083;28;20040;-80
2023/07/10 09:41:42;;;;;;;7.88;3.42;;;;;;;;;;5101877;28;20034;-78
2023/07/10 09:44:19;;;;;;;3.47;3.22;;;;;;;;;;5117414;28;20075;-80
2023/07/10 09:46:45;;;;;;;4.20;3.30;;;;;;;;;;5114925;28;20035;-79
2023/07/10 09:49:12;;;;;;;5.15;3.10;;;;;;;;;;5112294;28;20016;-79
2023/07/10 09:51:53;;;;;;;4.65;2.92;;;;;;;;;;5104897;28;20054;-80
2023/07/10 09:54:19;;;;;;;3.08;2.88;;;;;;;;;;5058327;28;20035;-80
2023/07/10 09:56:46;;;;;;;6.93;3.22;;;;;;;;;;5092404;28;20589;-80
2023/07/10 09:59:16;;;;;;;9.07;3.90;;;;;;;;;;5090667;28;20499;-78
2023/07/10 10:01:42;;;;;;;4.95;3.33;;;;;;;;;;5090279;28;20031;-80
2023/07/10 10:04:09;;;;;;;3.70;3.40;;;;;;;;;;5091793;28;20032;-80
2023/07/10 10:06:34;;;;;;;3.08;2.92;;;;;;;;;;5091032;28;20125;-80
2023/07/10 10:09:03;;;;;;;3.28;3.05;;;;;;;;;;5074243;28;20028;-80
2023/07/10 10:11:41;;;;;;;4.03;3.53;;;;;;;;;;5091132;28;20147;-80
2023/07/10 10:14:10;;;;;;;5.90;3.42;;;;;;;;;;5095277;28;20044;-80
2023/07/10 10:16:39;;;;;;;3.75;3.55;;;;;;;;;;5093748;28;20572;-81
2023/07/10 10:19:07;;;;;;;3.72;3.42;;;;;;;;;;5091742;28;20039;-81
2023/07/10 10:21:34;;;;;;;3.80;3.50;;;;;;;;;;5091513;28;20064;-80
2023/07/10 10:24:05;;;;;;;4.20;3.90;;;;;;;;;;5092097;28;20039;-80
2023/07/10 10:26:37;;;;;;;3.90;3.50;;;;;;;;;;5092387;28;20075;-81
2023/07/10 10:29:09;;;;;;;4.40;3.45;;;;;;;;;;5092032;28;20562;-80
2023/07/10 10:31:42;;;;;;;3.90;3.60;;;;;;;;;;5094259;28;20048;-80
2023/07/10 10:34:08;;;;;;;4.75;4.35;;;;;;;;;;5100749;28;20039;-77
2023/07/10 10:37:13;;;;;;;4.15;3.85;;;;;;;;;;5097156;28;20035;-79
2023/07/10 10:39:42;;;;;;;3.65;3.45;;;;;;;;;;5029074;28;20556;-81
2023/07/10 10:42:17;;;;;;;4.20;3.90;;;;;;;;;;5013455;28;20564;-79
2023/07/10 10:44:46;;;;;;;4.35;3.92;;;;;;;;;;5064116;28;20123;-79
2023/07/10 10:47:15;;;;;;;5.40;3.90;;;;;;;;;;5092129;28;20039;-80
2023/07/10 10:49:46;;;;;;;3.88;3.67;;;;;;;;;;5092735;28;20032;-78
2023/07/10 10:52:19;;;;;;;5.28;3.72;;;;;;;;;;5091357;28;20039;-79
2023/07/10 10:54:51;;;;;;;4.05;3.70;;;;;;;;;;5092543;28;20047;-80
2023/07/10 10:57:22;;;;;;;4.20;3.80;;;;;;;;;;5091341;28;20087;-80
2023/07/10 10:59:51;;;;;;;4.53;3.50;;;;;;;;;;5089497;28;20522;-81
2023/07/10 11:02:39;;;;;;;8.88;4.00;;;;;;;;;;5090719;28;20032;-80
2023/07/10 11:05:20;;;;;;;5.50;3.97;;;;;;;;;;5091261;28;20040;-79
2023/07/10 11:07:47;;;;;;;4.53;3.53;;;;;;;;;;5091275;28;20035;-80
2023/07/10 11:10:14;;;;;;;4.95;3.70;;;;;;;;;;5090079;28;20035;-81
2023/07/10 11:12:40;;;;;;;4.60;3.95;;;;;;;;;;5091002;28;20040;-81
2023/07/10 11:15:17;;;;;;;9.93;4.07;;;;;;;;;;5090985;28;20035;-79
2023/07/10 11:17:44;;;;;;;5.85;5.20;;;;;;;;;;5090725;28;20085;-80
2023/07/10 11:20:12;;;;;;;5.88;3.92;;;;;;;;;;5090719;28;20071;-80
2023/07/10 11:22:41;;;;;;;6.57;4.28;;;;;;;;;;5089406;28;20055;-80
2023/07/10 11:25:13;;;;;;;9.50;4.47;;;;;;;;;;5072979;28;20055;-80
2023/07/10 11:27:41;;;;;;;6.93;4.15;;;;;;;;;;5089452;28;20086;-80
2023/07/10 11:30:07;;;;;;;4.30;3.78;;;;;;;;;;5089697;28;20043;-80
2023/07/10 11:32:54;;;;;;;4.30;4.00;;;;;;;;;;5088787;28;20784;-80
2023/07/10 11:35:20;;;;;;;4.32;4.03;;;;;;;;;;5064715;28;20036;-80
2023/07/10 11:37:49;;;;;;;6.47;3.97;;;;;;;;;;5090224;28;20042;-80
2023/07/10 11:40:25;;;;;;;4.97;4.57;;;;;;;;;;5088922;28;20036;-80
2023/07/10 11:42:52;;;;;;;4.85;4.10;;;;;;;;;;5090605;28;20067;-80
2023/07/10 11:45:18;;;;;;;10.80;3.72;;;;;;;;;;5088945;28;20123;-80
2023/07/10 11:47:44;;;;;;;10.30;4.40;;;;;;;;;;5089522;28;20170;-80
2023/07/10 11:50:22;;;;;;;6.22;4.00;;;;;;;;;;5093213;28;20513;-80
2023/07/10 11:52:51;;;;;;;7.72;3.80;;;;;;;;;;5076557;28;20631;-79
2023/07/10 11:55:23;;;;;;;5.60;4.40;;;;;;;;;;5093295;28;20047;-79
2023/07/10 11:58:10;;;;;;;4.70;3.88;;;;;;;;;;5094368;28;20637;-79
2023/07/10 12:00:36;;;;;;;5.47;4.22;;;;;;;;;;5094091;28;20478;-80
2023/07/10 12:03:02;;;;;;;5.22;4.00;;;;;;;;;;5094486;28;20046;-80
2023/07/10 12:05:32;;;;;;;4.40;4.00;;;;;;;;;;5094036;28;20135;-77
2023/07/10 12:07:59;;;;;;;5.47;3.60;;;;;;;;;;5094505;28;20032;-79
2023/07/10 12:10:26;;;;;;;6.68;4.22;;;;;;;;;;5094040;28;20056;-80
2023/07/10 12:12:52;;;;;;;4.80;4.22;;;;;;;;;;5092869;28;20506;-80
2023/07/10 12:15:19;;;;;;;4.30;4.00;;;;;;;;;;5094009;28;20455;-78
2023/07/10 12:17:45;;;;;;;4.72;4.43;;;;;;;;;;5093057;28;20119;-79
2023/07/10 12:20:17;;;;;;;6.85;4.40;;;;;;;;;;5075896;28;20062;-80
2023/07/10 12:22:44;;;;;;;10.15;4.53;;;;;;;;;;5092496;28;20075;-81
2023/07/10 12:25:11;;;;;;;6.38;4.35;;;;;;;;;;5093688;28;20032;-81
2023/07/10 12:27:38;;;;;;;4.97;4.43;;;;;;;;;;5093905;28;20036;-82
2023/07/10 12:30:11;;;;;;;6.90;4.45;;;;;;;;;;5094347;28;20032;-80
2023/07/10 12:32:37;;;;;;;4.90;4.50;;;;;;;;;;5106232;28;20044;-81
2023/07/10 12:35:04;;;;;;;4.75;4.35;;;;;;;;;;5119383;28;20031;-82
2023/07/10 12:37:30;;;;;;;5.45;4.25;;;;;;;;;;5096920;28;20042;-79
2023/07/10 12:39:56;;;;;;;7.82;4.70;;;;;;;;;;5114755;28;20028;-80
2023/07/10 12:42:25;;;;;;;5.20;4.80;;;;;;;;;;5103620;28;20039;-83
2023/07/10 12:44:52;;;;;;;4.72;4.30;;;;;;;;;;5095021;28;20126;-81
2023/07/10 12:47:18;;;;;;;6.40;4.05;;;;;;;;;;5094354;28;20113;-80
2023/07/10 12:49:51;;;;;;;11.23;4.53;;;;;;;;;;5093665;28;20028;-80
2023/07/10 12:52:17;;;;;;;6.03;4.68;;;;;;;;;;5092586;28;20048;-80
2023/07/10 12:54:46;;;;;;;5.05;4.35;;;;;;;;;;5093561;28;20518;-80
2023/07/10 12:57:14;;;;;;;9.90;4.68;;;;;;;;;;5075601;28;20040;-79
2023/07/10 12:59:40;;;;;;;4.13;3.83;;;;;;;;;;5092435;28;20521;-80
2023/07/10 13:02:16;;;;;;;4.05;3.75;;;;;;;;;;5092045;28;20036;-80
2023/07/10 13:04:46;;;;;;;6.85;4.35;;;;;;;;;;5093294;28;20482;-80
2023/07/10 13:07:19;;;;;;;4.43;4.13;;;;;;;;;;5093191;28;20036;-79
2023/07/10 13:09:52;;;;;;;5.70;4.10;;;;;;;;;;5091849;28;20034;-80
2023/07/10 13:12:22;;;;;;;3.75;3.55;;;;;;;;;;5092903;28;20073;-80
2023/07/10 13:14:48;;;;;;;4.40;3.70;;;;;;;;;;5075031;28;20085;-80
2023/07/10 13:17:14;;;;;;;8.07;3.75;;;;;;;;;;5093190;28;20028;-79
2023/07/10 13:19:40;;;;;;;5.32;3.55;;;;;;;;;;5092614;28;20055;-81
2023/07/10 13:22:10;;;;;;;5.53;3.33;;;;;;;;;;5093270;28;20040;-81
2023/07/10 13:24:36;;;;;;;6.22;4.40;;;;;;;;;;5092644;28;20039;-79
2023/07/10 13:27:02;;;;;;;7.00;3.30;;;;;;;;;;5092754;28;20084;-81
2023/07/10 13:29:29;;;;;;;4.05;3.67;;;;;;;;;;5092266;28;20035;-78
2023/07/10 13:31:54;;;;;;;7.47;3.72;;;;;;;;;;5091179;28;20421;-80
2023/07/10 13:34:21;;;;;;;3.72;2.95;;;;;;;;;;5092806;28;20036;-81
2023/07/10 13:36:47;;;;;;;3.58;3.28;;;;;;;;;;5091540;28;20040;-80
2023/07/10 13:39:14;;;;;;;8.35;3.10;;;;;;;;;;5092949;28;20032;-81
2023/07/10 13:41:40;;;;;;;4.53;2.83;;;;;;;;;;5091729;28;20032;-82
2023/07/10 13:44:06;;;;;;;7.07;3.40;;;;;;;;;;5094803;28;20127;-78
2023/07/10 13:46:32;;;;;;;8.45;3.65;;;;;;;;;;5102803;28;20101;-80
2023/07/10 13:49:04;;;;;;;7.78;3.17;;;;;;;;;;5103358;28;20043;-80
2023/07/10 13:51:31;;;;;;;4.90;2.85;;;;;;;;;;5094060;28;20035;-79
2023/07/10 13:53:57;;;;;;;4.40;3.10;;;;;;;;;;5091322;28;20047;-81
2023/07/10 13:56:36;;;;;;;4.75;3.65;;;;;;;;;;5092405;28;20028;-80
2023/07/10 13:59:02;;;;;;;7.07;3.03;;;;;;;;;;5092129;28;20067;-81
2023/07/10 14:01:28;;;;;;;7.82;3.10;;;;;;;;;;5091992;28;20102;-80
2023/07/10 14:03:55;;;;;;;5.50;3.58;;;;;;;;;;5092544;28;20044;-80
2023/07/10 14:06:24;;;;;;;8.68;2.88;;;;;;;;;;5092147;28;20123;-82
2023/07/10 14:08:51;;;;;;;5.47;2.67;;;;;;;;;;5091920;28;20040;-80
2023/07/10 14:11:17;;;;;;;10.75;3.10;;;;;;;;;;5091767;28;20052;-82
2023/07/10 14:13:44;;;;;;;9.60;2.67;;;;;;;;;;5090175;28;20063;-81
2023/07/10 14:16:12;;;;;;;9.00;3.05;;;;;;;;;;5073896;28;20593;-80
2023/07/10 14:18:38;;;;;;;6.68;3.28;;;;;;;;;;5090142;28;20039;-81
2023/07/10 14:21:04;;;;;;;4.88;2.50;;;;;;;;;;5090574;28;20032;-80
2023/07/10 14:23:30;;;;;;;8.73;2.90;;;;;;;;;;5091874;28;20071;-80
2023/07/10 14:25:56;;;;;;;9.75;2.90;;;;;;;;;;5090581;28;20032;-80
2023/07/10 14:28:24;;;;;;;7.68;2.90;;;;;;;;;;5091700;28;20589;-78
2023/07/10 14:30:50;;;;;;;9.52;2.80;;;;;;;;;;5090484;28;20047;-79
2023/07/10 14:33:16;;;;;;;3.83;2.40;;;;;;;;;;5090408;28;20521;-79
2023/07/10 14:35:42;;;;;;;10.43;2.60;;;;;;;;;;5090729;28;20067;-80
2023/07/10 14:38:14;;;;;;;7.03;3.00;;;;;;;;;;5092206;28;20147;-80
2023/07/10 14:40:40;;;;;;;12.20;3.40;;;;;;;;;;5091548;28;20028;-79
2023/07/10 14:43:11;;;;;;;4.15;2.50;;;;;;;;;;5092490;28;20096;-80
2023/07/10 14:45:39;;;;;;;7.40;2.83;;;;;;;;;;5095110;28;20036;-81